Time;durP1;ratioP1;P1;durP2;ratioP2;P2;SDS_P1;SDS_P2;PMS_P1;PMS_P2;Temp;Humidity;BMP_temperature;BMP_pressure;BME280_temperature;BME280_humidity;BME280_pressure;Samples;Min_cycle;Max_cycle;Signal;HPM_P1;HPM_P2
2023/01/30 00:01:43;;;;;;;2.20;1.90;;;-3.20;99.90;;;;;;4977909;28;21420;-76
2023/01/30 00:04:11;;;;;;;1.25;1.15;;;-3.20;99.90;;;;;;4984594;28;20470;-77
2023/01/30 00:06:37;;;;;;;0.70;0.70;;;-3.20;99.90;;;;;;4986163;28;20038;-76
2023/01/30 00:09:03;;;;;;;0.90;0.90;;;-3.10;99.90;;;;;;4983819;28;20026;-77
2023/01/30 00:11:30;;;;;;;0.50;0.50;;;-3.10;99.90;;;;;;4980738;28;20030;-77
2023/01/30 00:13:56;;;;;;;0.85;0.85;;;-3.00;99.90;;;;;;4984139;28;20027;-76
2023/01/30 00:16:22;;;;;;;1.77;1.67;;;-3.00;99.90;;;;;;4985862;28;20027;-76
2023/01/30 00:18:48;;;;;;;0.50;0.50;;;-3.00;99.90;;;;;;4983567;28;20022;-77
2023/01/30 00:21:14;;;;;;;3.70;3.38;;;-3.00;99.90;;;;;;4980458;28;20018;-77
2023/01/30 00:23:40;;;;;;;0.50;0.50;;;-2.90;99.90;;;;;;4983749;28;20026;-77
2023/01/30 00:26:06;;;;;;;0.93;0.93;;;-2.90;99.90;;;;;;4977472;28;20080;-76
2023/01/30 00:28:32;;;;;;;0.57;0.57;;;-2.80;99.90;;;;;;4993106;28;20084;-76
2023/01/30 00:30:58;;;;;;;0.60;0.60;;;-2.80;99.90;;;;;;4980231;28;20048;-76
2023/01/30 00:33:25;;;;;;;2.38;1.50;;;-2.70;99.90;;;;;;4983429;28;20485;-75
2023/01/30 00:35:52;;;;;;;0.60;0.60;;;-2.70;99.90;;;;;;4985353;28;20030;-75
2023/01/30 00:38:18;;;;;;;0.60;0.60;;;-2.80;99.90;;;;;;4983626;28;20026;-76
2023/01/30 00:40:45;;;;;;;0.60;0.60;;;-2.70;99.90;;;;;;4980265;28;20050;-76
2023/01/30 00:48:41;;;;;;;0.50;0.50;;;-2.70;99.90;;;;;;4990198;28;19961;-76
2023/01/30 00:51:06;;;;;;;0.45;0.45;;;-2.60;99.90;;;;;;4982239;28;20030;-75
2023/01/30 00:53:32;;;;;;;0.85;0.85;;;-2.70;99.90;;;;;;4980104;28;20030;-76
2023/01/30 00:55:58;;;;;;;0.65;0.65;;;-2.70;99.90;;;;;;4983452;28;20027;-76
2023/01/30 00:58:24;;;;;;;0.63;0.63;;;-2.60;99.90;;;;;;4986253;28;20023;-76
2023/01/30 01:00:50;;;;;;;0.52;0.52;;;-2.60;99.90;;;;;;4983576;28;20026;-76
2023/01/30 01:03:16;;;;;;;0.55;0.55;;;-2.60;99.90;;;;;;4995937;28;20022;-76
2023/01/30 01:05:42;;;;;;;0.60;0.60;;;-2.60;99.90;;;;;;4985636;28;20030;-76
2023/01/30 01:08:08;;;;;;;1.13;1.13;;;-2.50;99.90;;;;;;4991514;28;20365;-76
2023/01/30 01:10:34;;;;;;;0.70;0.70;;;-2.50;99.90;;;;;;4993418;28;20117;-76
2023/01/30 01:12:59;;;;;;;0.50;0.50;;;-2.50;99.90;;;;;;4992571;28;20026;-76
2023/01/30 01:15:25;;;;;;;0.93;0.93;;;-2.40;99.90;;;;;;4972170;28;20485;-75
2023/01/30 01:17:51;;;;;;;0.82;0.82;;;-2.40;99.90;;;;;;4973068;28;20027;-75
2023/01/30 01:20:18;;;;;;;0.50;0.50;;;-2.40;99.90;;;;;;4982892;28;20503;-77
2023/01/30 01:22:44;;;;;;;1.33;1.33;;;-2.30;99.90;;;;;;4993654;28;20022;-76
2023/01/30 01:25:10;;;;;;;2.00;1.95;;;-2.50;99.90;;;;;;4993226;28;20030;-76
2023/01/30 01:27:37;;;;;;;0.60;0.60;;;-2.40;99.90;;;;;;4994774;28;20084;-76
2023/01/30 01:30:04;;;;;;;0.50;0.50;;;-2.40;99.90;;;;;;4983498;28;20041;-75
2023/01/30 01:32:29;;;;;;;3.25;3.03;;;-2.50;99.90;;;;;;4972823;28;20031;-75
2023/01/30 01:34:55;;;;;;;0.80;0.80;;;-2.50;99.90;;;;;;4972866;28;20030;-74
2023/01/30 01:37:20;;;;;;;1.63;1.58;;;-2.40;99.90;;;;;;4971186;28;20035;-75
2023/01/30 01:42:34;;;;;;;3.08;1.30;;;-2.40;99.90;;;;;;4985854;28;20444;-74
2023/01/30 01:45:15;;;;;;;2.60;2.17;;;-2.40;99.90;;;;;;4972890;28;20057;-74
2023/01/30 01:47:58;;;;;;;1.52;1.52;;;-2.40;99.90;;;;;;4980797;28;20030;-76
2023/01/30 01:50:52;;;;;;;1.23;1.23;;;-2.40;99.90;;;;;;4974044;28;20493;-76
2023/01/30 01:53:20;;;;;;;1.00;1.00;;;-2.30;99.90;;;;;;4983875;28;20125;-76
2023/01/30 01:55:48;;;;;;;3.92;0.95;;;-2.30;99.90;;;;;;4992155;28;20031;-75
2023/01/30 01:58:33;;;;;;;15.48;5.63;;;-2.30;99.90;;;;;;4976997;28;20045;-76
2023/01/30 02:01:00;;;;;;;1.15;1.10;;;-2.40;99.90;;;;;;4983464;28;20519;-75
2023/01/30 02:03:29;;;;;;;1.45;1.45;;;-2.40;99.90;;;;;;4989396;28;20516;-75
2023/01/30 02:05:57;;;;;;;2.13;2.03;;;-2.40;99.90;;;;;;4985374;28;20033;-75
2023/01/30 02:08:48;;;;;;;1.33;1.27;;;-2.40;99.90;;;;;;4976090;28;20093;-75
2023/01/30 02:11:33;;;;;;;8.05;3.22;;;-2.40;99.90;;;;;;4989655;28;20023;-75
2023/01/30 02:14:00;;;;;;;0.50;0.50;;;-2.40;99.90;;;;;;4986733;28;20053;-75
2023/01/30 02:16:25;;;;;;;1.00;1.00;;;-2.40;99.90;;;;;;4982745;28;20540;-75
2023/01/30 02:18:51;;;;;;;0.60;0.60;;;-2.40;99.90;;;;;;4995624;28;20034;-75
2023/01/30 02:21:32;;;;;;;1.80;1.70;;;-2.40;99.90;;;;;;4982437;28;20026;-75
2023/01/30 02:24:15;;;;;;;0.70;0.70;;;-2.40;99.90;;;;;;4984060;28;20030;-76
2023/01/30 02:26:59;;;;;;;2.20;1.20;;;-2.30;99.90;;;;;;4985141;28;20037;-76
2023/01/30 02:29:54;;;;;;;0.73;0.73;;;-2.30;99.90;;;;;;4982763;28;20443;-76
2023/01/30 02:32:20;;;;;;;0.70;0.70;;;-2.30;99.90;;;;;;4980805;28;20023;-76
2023/01/30 02:35:27;;;;;;;2.35;1.95;;;-2.20;99.90;;;;;;4984174;28;20037;-75
2023/01/30 02:38:03;;;;;;;1.25;1.20;;;-2.20;99.90;;;;;;4995077;28;20074;-75
2023/01/30 02:41:20;;;;;;;0.95;0.95;;;-2.20;99.90;;;;;;4982233;28;20569;-75
2023/01/30 02:44:03;;;;;;;1.13;1.13;;;-2.20;99.90;;;;;;4957184;28;20038;-75
2023/01/30 02:46:42;;;;;;;0.90;0.90;;;-2.20;99.90;;;;;;4995250;28;20022;-75
2023/01/30 02:49:22;;;;;;;0.68;0.68;;;-2.10;99.90;;;;;;4982404;28;20025;-75
2023/01/30 02:51:50;;;;;;;0.70;0.70;;;-2.10;99.90;;;;;;4994052;28;20069;-76
2023/01/30 02:54:16;;;;;;;0.57;0.57;;;-2.10;99.90;;;;;;4995222;28;20101;-75
2023/01/30 02:56:48;;;;;;;1.42;0.93;;;-2.00;99.90;;;;;;4982113;28;20053;-76
2023/01/30 02:59:18;;;;;;;0.80;0.80;;;-2.00;99.90;;;;;;4985232;28;20019;-75
2023/01/30 03:02:21;;;;;;;0.70;0.70;;;-2.00;99.90;;;;;;4979909;28;20029;-76
2023/01/30 03:05:05;;;;;;;0.80;0.80;;;-2.00;99.90;;;;;;4994935;28;20100;-76
2023/01/30 03:08:06;;;;;;;3.13;2.13;;;-2.00;99.90;;;;;;4994795;28;20030;-76
2023/01/30 03:10:56;;;;;;;2.42;2.33;;;-2.10;99.90;;;;;;4953827;28;20038;-76
2023/01/30 03:13:33;;;;;;;0.70;0.70;;;-2.00;99.90;;;;;;4989008;28;20039;-75
2023/01/30 03:16:04;;;;;;;1.45;1.35;;;-2.00;99.90;;;;;;4988645;28;20026;-76
2023/01/30 03:18:29;;;;;;;5.30;4.95;;;-2.00;99.90;;;;;;4987065;28;20070;-75
2023/01/30 03:20:55;;;;;;;1.00;1.00;;;-2.00;99.90;;;;;;4987150;28;20022;-77
2023/01/30 03:23:21;;;;;;;0.80;0.80;;;-1.90;99.90;;;;;;4982622;28;20088;-77
2023/01/30 03:25:48;;;;;;;1.45;1.45;;;-2.00;99.90;;;;;;4981327;28;20031;-78
2023/01/30 03:28:17;;;;;;;0.70;0.70;;;-1.90;99.90;;;;;;4988396;28;20054;-78
2023/01/30 03:30:43;;;;;;;0.82;0.82;;;-1.90;99.90;;;;;;4992056;28;20022;-77
2023/01/30 03:33:09;;;;;;;1.48;1.48;;;-1.80;99.90;;;;;;5004202;28;20146;-76
2023/01/30 03:35:34;;;;;;;0.88;0.88;;;-1.80;99.90;;;;;;4987982;28;20026;-74
2023/01/30 03:38:00;;;;;;;1.25;1.25;;;-1.70;99.90;;;;;;4973315;28;20049;-75
2023/01/30 03:40:26;;;;;;;0.75;0.75;;;-1.70;99.90;;;;;;4988297;28;20053;-75
2023/01/30 03:42:51;;;;;;;6.03;3.65;;;-1.70;99.90;;;;;;4986671;28;20031;-75
2023/01/30 03:45:17;;;;;;;0.88;0.88;;;-1.60;99.90;;;;;;4987712;28;20026;-76
2023/01/30 03:47:42;;;;;;;1.50;1.40;;;-1.60;99.90;;;;;;4984997;28;20034;-75
2023/01/30 03:50:09;;;;;;;1.92;1.83;;;-1.60;99.90;;;;;;4988856;28;20098;-77
2023/01/30 03:52:35;;;;;;;1.67;1.58;;;-1.50;99.90;;;;;;4986507;28;20114;-76
2023/01/30 03:55:01;;;;;;;3.15;2.03;;;-1.50;99.90;;;;;;4986343;28;20026;-75
2023/01/30 03:57:26;;;;;;;1.00;1.00;;;-1.50;99.90;;;;;;4982078;28;20037;-76
2023/01/30 03:59:52;;;;;;;3.38;3.22;;;-1.50;99.90;;;;;;4982681;28;20022;-75
2023/01/30 04:02:22;;;;;;;0.70;0.70;;;-1.50;99.90;;;;;;4993762;28;20370;-75
2023/01/30 04:04:48;;;;;;;1.25;1.25;;;-1.40;99.90;;;;;;4979657;28;20105;-73
2023/01/30 04:07:14;;;;;;;0.70;0.70;;;-1.40;99.90;;;;;;4983948;28;20042;-74
2023/01/30 04:09:40;;;;;;;0.70;0.70;;;-1.40;99.90;;;;;;5008639;28;20056;-74
2023/01/30 04:12:06;;;;;;;1.70;1.60;;;-1.40;99.90;;;;;;4993702;28;20035;-75
2023/01/30 04:14:31;;;;;;;0.60;0.60;;;-1.40;99.90;;;;;;5008618;28;20054;-74
2023/01/30 04:16:57;;;;;;;2.55;2.35;;;-1.40;99.90;;;;;;4985798;28;20424;-75
2023/01/30 04:19:22;;;;;;;0.75;0.75;;;-1.40;99.90;;;;;;5007212;28;20476;-75
2023/01/30 04:21:48;;;;;;;0.93;0.93;;;-1.30;99.90;;;;;;4992243;28;20073;-74
2023/01/30 04:24:13;;;;;;;2.58;2.35;;;-1.30;99.90;;;;;;4993384;28;20469;-74
2023/01/30 04:26:39;;;;;;;1.10;1.08;;;-1.30;99.90;;;;;;4985586;28;20023;-74
2023/01/30 04:29:04;;;;;;;0.77;0.77;;;-1.30;99.90;;;;;;4986949;28;20030;-74
2023/01/30 04:31:30;;;;;;;2.50;1.88;;;-1.30;99.90;;;;;;4980449;28;20033;-74
2023/01/30 04:33:56;;;;;;;0.75;0.75;;;-1.30;99.90;;;;;;4993307;28;20109;-75
2023/01/30 04:36:21;;;;;;;0.80;0.80;;;-1.30;99.90;;;;;;4980246;28;20312;-74
2023/01/30 04:38:47;;;;;;;5.45;4.55;;;-1.20;99.90;;;;;;4980028;28;20189;-74
2023/01/30 04:41:12;;;;;;;0.82;0.82;;;-1.20;99.90;;;;;;4986751;28;20065;-74
2023/01/30 04:43:38;;;;;;;0.80;0.80;;;-1.20;99.90;;;;;;4986735;28;20113;-77
2023/01/30 04:46:05;;;;;;;0.75;0.75;;;-1.20;99.90;;;;;;4978744;28;20026;-75
2023/01/30 04:48:30;;;;;;;1.70;1.60;;;-1.20;99.90;;;;;;4979813;28;20388;-76
2023/01/30 04:50:56;;;;;;;1.45;1.08;;;-1.10;99.90;;;;;;4980162;28;20102;-75
2023/01/30 04:53:23;;;;;;;0.80;0.80;;;-1.00;99.90;;;;;;4980151;28;20035;-75
2023/01/30 04:55:49;;;;;;;0.60;0.60;;;-1.00;99.90;;;;;;4986726;28;20102;-73
2023/01/30 04:58:16;;;;;;;0.82;0.82;;;-1.00;99.90;;;;;;4986304;28;20114;-75
2023/01/30 05:00:41;;;;;;;1.13;1.13;;;-1.00;99.90;;;;;;4992744;28;20029;-75
2023/01/30 05:03:07;;;;;;;1.55;1.55;;;-1.00;99.90;;;;;;4978745;28;20030;-75
2023/01/30 05:05:33;;;;;;;1.20;1.20;;;-0.90;99.90;;;;;;4981096;28;20031;-73
2023/01/30 05:07:59;;;;;;;0.88;0.88;;;-0.90;99.90;;;;;;4990998;28;20058;-76
2023/01/30 05:10:24;;;;;;;55.83;19.77;;;-0.90;99.90;;;;;;4985150;28;20061;-75
2023/01/30 05:12:50;;;;;;;1.65;1.65;;;-0.80;99.90;;;;;;4985921;28;20030;-75
2023/01/30 05:15:15;;;;;;;0.93;0.93;;;-0.90;99.90;;;;;;5000438;28;20489;-72
2023/01/30 05:17:41;;;;;;;0.98;0.98;;;-0.80;99.90;;;;;;4984559;28;20109;-74
2023/01/30 05:20:08;;;;;;;0.80;0.80;;;-0.80;99.90;;;;;;4973005;28;20027;-74
2023/01/30 05:22:34;;;;;;;2.08;1.98;;;-0.80;99.90;;;;;;4972548;28;20044;-74
2023/01/30 05:25:00;;;;;;;1.95;1.85;;;-0.80;99.90;;;;;;4992314;28;20540;-74
2023/01/30 05:27:26;;;;;;;0.90;0.90;;;-0.80;99.90;;;;;;4978131;28;20106;-74
2023/01/30 05:29:51;;;;;;;1.85;1.75;;;-0.80;99.90;;;;;;4979927;28;20245;-74
2023/01/30 05:32:18;;;;;;;2.88;2.78;;;-0.70;99.90;;;;;;4991577;28;20030;-74
2023/01/30 05:34:43;;;;;;;1.05;1.00;;;-0.80;99.90;;;;;;4972883;28;20027;-74
2023/01/30 05:37:10;;;;;;;1.08;1.08;;;-0.70;99.90;;;;;;4980748;28;20061;-74
2023/01/30 05:39:36;;;;;;;0.90;0.90;;;-0.70;99.90;;;;;;4992249;28;20057;-74
2023/01/30 05:42:02;;;;;;;2.10;2.00;;;-0.70;99.90;;;;;;4979181;28;20062;-74
2023/01/30 05:44:28;;;;;;;2.15;2.10;;;-0.70;99.90;;;;;;4985279;28;20027;-75
2023/01/30 05:46:53;;;;;;;1.00;1.00;;;-0.70;99.90;;;;;;4972534;28;20089;-74
2023/01/30 05:49:19;;;;;;;1.25;1.25;;;-0.70;99.90;;;;;;4979869;28;20036;-74
2023/01/30 05:51:44;;;;;;;0.90;0.90;;;-0.70;99.90;;;;;;4994021;28;20504;-75
2023/01/30 05:54:10;;;;;;;3.10;2.53;;;-0.70;99.90;;;;;;4992199;28;20034;-75
2023/01/30 05:56:35;;;;;;;1.65;1.55;;;-0.70;99.90;;;;;;4978854;28;20031;-75
2023/01/30 05:59:01;;;;;;;3.80;1.48;;;-0.60;99.90;;;;;;4985482;28;20027;-75
2023/01/30 06:01:28;;;;;;;3.38;1.90;;;-0.60;99.90;;;;;;4988485;28;20023;-76
2023/01/30 06:03:55;;;;;;;2.42;1.77;;;-0.60;99.90;;;;;;4984915;28;20063;-75
2023/01/30 06:06:22;;;;;;;9.93;5.72;;;-0.50;99.90;;;;;;4982405;28;20034;-74
2023/01/30 06:08:51;;;;;;;12.40;8.30;;;-0.50;99.90;;;;;;4979566;28;20109;-75
2023/01/30 06:11:16;;;;;;;2.72;2.50;;;-0.40;99.90;;;;;;4989677;28;20030;-75
2023/01/30 06:13:42;;;;;;;5.72;5.22;;;-0.40;99.90;;;;;;4980604;28;20097;-75
2023/01/30 06:16:13;;;;;;;3.35;3.15;;;-0.40;99.90;;;;;;4991046;28;20038;-75
2023/01/30 06:18:39;;;;;;;1.45;1.30;;;-0.40;99.90;;;;;;4980531;28;20023;-76
2023/01/30 06:21:04;;;;;;;1.55;1.55;;;-0.50;99.90;;;;;;4978932;28;20054;-76
2023/01/30 06:23:30;;;;;;;1.67;1.58;;;-0.50;99.90;;;;;;4984315;28;20509;-76
2023/01/30 06:25:56;;;;;;;1.80;1.70;;;-0.50;99.90;;;;;;4984216;28;20053;-76
2023/01/30 06:28:23;;;;;;;7.22;5.10;;;-0.40;99.90;;;;;;4970983;28;20477;-76
2023/01/30 06:30:49;;;;;;;4.90;3.28;;;-0.40;99.90;;;;;;4985502;28;20033;-76
2023/01/30 06:33:15;;;;;;;8.63;5.78;;;-0.40;99.90;;;;;;4979222;28;20029;-76
2023/01/30 06:35:41;;;;;;;14.32;9.88;;;-0.40;99.90;;;;;;4978882;28;20469;-76
2023/01/30 06:38:12;;;;;;;8.23;7.38;;;-0.40;99.90;;;;;;4981970;28;20531;-77
2023/01/30 06:40:39;;;;;;;8.73;5.88;;;-0.40;99.90;;;;;;4988541;28;20432;-74
2023/01/30 06:43:05;;;;;;;2.78;2.67;;;-0.40;99.90;;;;;;4981156;28;20019;-76
2023/01/30 06:45:31;;;;;;;13.27;7.47;;;-0.50;99.90;;;;;;4988194;28;20101;-76
2023/01/30 06:47:56;;;;;;;7.63;5.97;;;-0.50;99.90;;;;;;4982459;28;20033;-76
2023/01/30 06:50:24;;;;;;;2.83;2.72;;;-0.50;99.90;;;;;;4988704;28;20089;-76
2023/01/30 06:52:51;;;;;;;8.27;7.32;;;-0.50;99.90;;;;;;4985061;28;20105;-76
2023/01/30 06:55:20;;;;;;;21.02;13.38;;;-0.50;99.90;;;;;;4980788;28;20031;-75
2023/01/30 06:57:46;;;;;;;15.55;11.70;;;-0.50;99.90;;;;;;4985007;28;20061;-75
2023/01/30 07:00:18;;;;;;;3.90;3.60;;;-0.60;99.90;;;;;;4989456;28;20053;-75
2023/01/30 07:02:44;;;;;;;8.18;6.25;;;-0.60;99.90;;;;;;4994860;28;20061;-75
2023/01/30 07:05:11;;;;;;;12.10;8.82;;;-0.50;99.90;;;;;;4990458;28;20097;-75
2023/01/30 07:07:37;;;;;;;5.30;4.50;;;-0.50;99.90;;;;;;4986049;28;20030;-75
2023/01/30 07:10:06;;;;;;;4.68;4.45;;;-0.60;99.90;;;;;;4996774;28;20030;-75
2023/01/30 07:12:31;;;;;;;5.60;5.10;;;-0.50;99.90;;;;;;4998273;28;20022;-75
2023/01/30 07:14:57;;;;;;;8.95;8.02;;;-0.50;99.90;;;;;;4993591;28;20052;-76
2023/01/30 07:17:23;;;;;;;3.80;3.60;;;-0.50;99.90;;;;;;4993151;28;20464;-74
2023/01/30 07:19:49;;;;;;;4.05;3.75;;;-0.50;99.90;;;;;;4986803;28;20095;-75
2023/01/30 07:22:15;;;;;;;7.72;6.70;;;-0.50;99.90;;;;;;4993525;28;20125;-75
2023/01/30 07:24:42;;;;;;;5.45;5.00;;;-0.60;99.90;;;;;;4990165;28;20102;-76
2023/01/30 07:27:09;;;;;;;2.70;2.60;;;-0.60;99.90;;;;;;4995999;28;20033;-75
2023/01/30 07:29:37;;;;;;;3.42;3.22;;;-0.50;99.90;;;;;;5005465;28;20042;-75
2023/01/30 07:32:04;;;;;;;2.83;2.72;;;-0.60;99.90;;;;;;5002718;28;20088;-76
2023/01/30 07:34:29;;;;;;;4.20;2.88;;;-0.60;99.90;;;;;;5009939;28;20026;-76
2023/01/30 07:36:55;;;;;;;5.43;4.95;;;-0.50;99.90;;;;;;4996782;28;20038;-76
2023/01/30 07:39:20;;;;;;;5.05;4.47;;;-0.50;99.90;;;;;;4997105;28;20023;-76
2023/01/30 07:41:46;;;;;;;2.65;2.55;;;-0.50;99.90;;;;;;5010646;28;20027;-76
2023/01/30 07:44:12;;;;;;;6.05;5.38;;;-0.50;99.90;;;;;;4990949;28;20026;-76
2023/01/30 07:46:38;;;;;;;2.85;2.75;;;-0.50;99.90;;;;;;4999438;28;20041;-75
2023/01/30 07:49:04;;;;;;;5.07;4.78;;;-0.50;99.90;;;;;;4976038;28;20026;-76
2023/01/30 07:51:30;;;;;;;5.00;4.70;;;-0.50;99.90;;;;;;4985357;28;20485;-75
2023/01/30 07:53:55;;;;;;;5.90;5.35;;;-0.50;99.90;;;;;;4981065;28;20037;-76
2023/01/30 07:56:21;;;;;;;2.75;2.65;;;-0.50;99.90;;;;;;4993887;28;20034;-76
2023/01/30 07:58:47;;;;;;;13.27;10.82;;;-0.50;99.90;;;;;;4978883;28;20023;-77
2023/01/30 08:01:13;;;;;;;8.30;7.40;;;-0.50;99.90;;;;;;4982061;28;20054;-75
2023/01/30 08:03:38;;;;;;;3.47;3.03;;;-0.50;99.90;;;;;;4992514;28;20126;-75
2023/01/30 08:06:04;;;;;;;5.88;5.57;;;-0.50;99.90;;;;;;4982635;28;20035;-75
2023/01/30 08:08:30;;;;;;;7.88;6.97;;;-0.50;99.90;;;;;;4992867;28;20478;-75
2023/01/30 08:10:55;;;;;;;2.83;2.72;;;-0.50;99.90;;;;;;4981860;28;20105;-75
2023/01/30 08:13:21;;;;;;;3.55;3.35;;;-0.40;99.90;;;;;;4985849;28;20030;-75
2023/01/30 08:15:46;;;;;;;5.57;5.25;;;-0.40;99.90;;;;;;4986021;28;20053;-75
2023/01/30 08:18:12;;;;;;;4.32;4.13;;;-0.40;99.90;;;;;;4979594;28;20439;-75
2023/01/30 08:20:37;;;;;;;3.45;3.35;;;-0.30;99.90;;;;;;4981822;28;20455;-75
2023/01/30 08:23:04;;;;;;;3.38;3.28;;;-0.30;99.90;;;;;;4992353;28;20027;-76
2023/01/30 08:25:29;;;;;;;2.10;2.10;;;-0.30;99.90;;;;;;4981463;28;20076;-76
2023/01/30 08:27:57;;;;;;;2.47;2.38;;;-0.30;99.90;;;;;;4986188;28;20027;-76
2023/01/30 08:30:22;;;;;;;3.22;3.05;;;-0.30;99.90;;;;;;4984718;28;20061;-76
2023/01/30 08:32:48;;;;;;;4.07;3.88;;;-0.30;99.90;;;;;;4989244;28;20022;-75
2023/01/30 08:35:14;;;;;;;3.55;3.45;;;-0.30;99.90;;;;;;4985643;28;20049;-75
2023/01/30 08:37:41;;;;;;;4.32;4.03;;;-0.20;99.90;;;;;;4979180;28;20534;-75
2023/01/30 08:40:07;;;;;;;3.17;2.97;;;-0.20;99.90;;;;;;4993313;28;20424;-75
2023/01/30 08:42:33;;;;;;;3.70;3.50;;;-0.20;99.90;;;;;;4979823;28;20104;-75
2023/01/30 08:44:59;;;;;;;2.60;2.50;;;-0.20;99.90;;;;;;4993038;28;20054;-75
2023/01/30 08:47:24;;;;;;;2.33;2.22;;;-0.20;99.90;;;;;;4979347;28;20085;-75
2023/01/30 08:49:53;;;;;;;4.00;3.80;;;-0.20;99.90;;;;;;4979766;28;20039;-75
2023/01/30 08:52:19;;;;;;;2.60;2.50;;;-0.20;99.90;;;;;;4977389;28;20064;-76
2023/01/30 08:54:45;;;;;;;4.28;4.07;;;-0.20;99.90;;;;;;4980683;28;20039;-75
2023/01/30 08:57:10;;;;;;;5.60;4.70;;;-0.10;99.90;;;;;;4985552;28;20597;-76
2023/01/30 08:59:36;;;;;;;6.03;4.72;;;-0.10;99.90;;;;;;4974243;28;20034;-77
2023/01/30 09:02:02;;;;;;;11.20;8.93;;;0.00;99.90;;;;;;4992604;28;20014;-75
2023/01/30 09:04:31;;;;;;;2.70;2.60;;;0.00;99.90;;;;;;4996141;28;20034;-75
2023/01/30 09:06:56;;;;;;;7.55;6.82;;;-0.10;99.90;;;;;;4982540;28;20034;-76
2023/01/30 09:09:22;;;;;;;9.35;6.22;;;0.00;99.90;;;;;;4985379;28;20404;-76
2023/01/30 09:11:48;;;;;;;6.18;5.68;;;0.00;99.90;;;;;;4992737;28;20058;-75
2023/01/30 09:14:18;;;;;;;3.78;3.67;;;0.00;99.90;;;;;;4980079;28;20058;-75
2023/01/30 09:16:45;;;;;;;5.85;5.43;;;0.10;99.90;;;;;;4970878;28;20103;-76
2023/01/30 09:19:11;;;;;;;6.35;5.78;;;0.00;99.90;;;;;;4971274;28;20022;-76
2023/01/30 09:21:37;;;;;;;4.03;3.83;;;0.10;99.90;;;;;;4972692;28;20089;-76
2023/01/30 09:24:04;;;;;;;8.32;7.47;;;0.10;99.90;;;;;;4985224;28;20109;-76
2023/01/30 09:26:29;;;;;;;5.78;5.47;;;0.10;99.90;;;;;;4984797;28;20031;-76
2023/01/30 09:28:55;;;;;;;2.75;2.65;;;0.10;99.90;;;;;;4985249;28;20631;-76
2023/01/30 09:31:21;;;;;;;2.85;2.75;;;0.10;99.90;;;;;;4991846;28;20081;-76
2023/01/30 09:33:46;;;;;;;3.10;3.00;;;0.10;99.90;;;;;;4992196;28;20161;-76
2023/01/30 09:36:12;;;;;;;6.53;5.97;;;0.20;99.90;;;;;;4979099;28;20484;-75
2023/01/30 09:38:37;;;;;;;4.13;3.92;;;0.20;99.90;;;;;;4978014;28;20027;-76
2023/01/30 09:41:27;;;;;;;7.43;6.00;;;0.20;99.90;;;;;;4977459;28;20019;-75
2023/01/30 09:44:29;;;;;;;4.35;4.07;;;0.20;99.90;;;;;;4989160;28;20400;-75
2023/01/30 09:47:12;;;;;;;3.92;3.72;;;0.30;99.90;;;;;;4985793;28;20428;-76
2023/01/30 09:49:43;;;;;;;5.75;5.35;;;0.30;99.90;;;;;;4980979;28;20027;-76
2023/01/30 09:52:37;;;;;;;7.50;7.00;;;0.30;99.90;;;;;;4984524;28;20037;-76
2023/01/30 09:55:19;;;;;;;6.38;5.88;;;0.40;99.90;;;;;;4987047;28;20026;-75
2023/01/30 09:57:47;;;;;;;4.20;3.63;;;0.30;99.90;;;;;;4980679;28;20050;-76
2023/01/30 10:00:42;;;;;;;7.85;5.85;;;0.40;99.90;;;;;;4985265;28;20023;-75
2023/01/30 10:03:23;;;;;;;7.72;7.00;;;0.40;99.90;;;;;;4984410;28;20031;-76
2023/01/30 10:05:57;;;;;;;7.38;6.72;;;0.50;99.90;;;;;;4982482;28;20054;-76
2023/01/30 10:08:44;;;;;;;5.43;5.10;;;0.50;99.90;;;;;;4986168;28;20027;-76
2023/01/30 10:11:34;;;;;;;7.53;6.80;;;0.50;99.90;;;;;;4985660;28;20149;-75
2023/01/30 10:14:12;;;;;;;5.47;5.03;;;0.50;99.90;;;;;;4981547;28;20026;-76
2023/01/30 10:16:57;;;;;;;5.97;5.50;;;0.50;99.90;;;;;;4973276;28;20030;-76
2023/01/30 10:19:43;;;;;;;6.25;5.75;;;0.50;99.90;;;;;;4985445;28;20106;-76
2023/01/30 10:22:23;;;;;;;5.35;5.05;;;0.50;99.90;;;;;;4981913;28;20070;-76
2023/01/30 10:25:00;;;;;;;7.47;6.70;;;0.50;99.90;;;;;;4981402;28;20060;-75
2023/01/30 10:27:29;;;;;;;5.68;5.25;;;0.60;99.90;;;;;;4981901;28;20027;-75
2023/01/30 10:29:57;;;;;;;8.60;7.90;;;0.60;99.90;;;;;;4986994;28;20030;-76
2023/01/30 10:32:30;;;;;;;13.82;11.48;;;0.60;99.90;;;;;;4990706;28;20041;-76
2023/01/30 10:35:03;;;;;;;6.55;5.38;;;0.60;99.90;;;;;;4987871;28;20034;-75
2023/01/30 10:37:34;;;;;;;6.53;5.95;;;0.60;99.90;;;;;;4994402;28;20034;-76
2023/01/30 10:40:16;;;;;;;7.15;6.50;;;0.50;99.90;;;;;;4984285;28;20034;-76
2023/01/30 10:43:00;;;;;;;7.03;6.43;;;0.50;99.90;;;;;;4980885;28;20105;-75
2023/01/30 10:45:52;;;;;;;6.70;6.25;;;0.50;99.90;;;;;;4994108;28;20015;-76
2023/01/30 10:48:55;;;;;;;9.18;8.48;;;0.50;99.90;;;;;;4982121;28;20023;-76
2023/01/30 10:51:35;;;;;;;8.45;7.65;;;0.50;99.90;;;;;;4986541;28;20061;-74
2023/01/30 10:54:45;;;;;;;7.15;6.65;;;0.50;99.90;;;;;;4987369;28;20030;-76
2023/01/30 10:57:22;;;;;;;4.82;4.55;;;0.40;99.90;;;;;;4959494;29;20039;-75
2023/01/30 10:59:58;;;;;;;6.07;5.65;;;0.50;99.90;;;;;;4985304;28;20035;-75
2023/01/30 11:02:29;;;;;;;;;;;0.40;99.90;;;;;;5002542;28;20034;-75
2023/01/30 11:05:02;;;;;;;6.65;6.13;;;0.40;99.90;;;;;;5000909;28;19932;-76
2023/01/30 11:07:31;;;;;;;8.70;7.97;;;0.50;99.90;;;;;;4986899;28;20026;-76
2023/01/30 11:09:57;;;;;;;8.63;7.88;;;0.50;99.90;;;;;;5005780;28;20027;-76
2023/01/30 11:12:23;;;;;;;7.25;6.57;;;0.50;99.90;;;;;;4985790;28;20034;-75
2023/01/30 11:14:50;;;;;;;9.82;8.98;;;0.50;99.90;;;;;;4977471;28;20027;-75
2023/01/30 11:17:18;;;;;;;9.23;8.02;;;0.50;99.90;;;;;;4974343;28;20160;-75
2023/01/30 11:19:43;;;;;;;8.15;7.47;;;0.50;99.90;;;;;;4991002;28;20018;-75
2023/01/30 11:22:13;;;;;;;8.15;7.60;;;0.40;99.90;;;;;;5009699;28;20052;-75
2023/01/30 11:24:42;;;;;;;8.45;7.82;;;0.40;99.90;;;;;;4996615;28;20552;-75
2023/01/30 11:27:23;;;;;;;8.77;8.10;;;0.50;99.90;;;;;;4981632;28;20117;-75
2023/01/30 11:29:51;;;;;;;5.88;5.55;;;0.40;99.90;;;;;;4992571;28;20045;-75
2023/01/30 11:32:28;;;;;;;9.80;9.15;;;0.40;99.90;;;;;;4979347;28;20125;-76
2023/01/30 11:35:05;;;;;;;9.20;8.60;;;0.40;99.90;;;;;;4993778;28;20037;-76
2023/01/30 11:37:52;;;;;;;9.57;8.90;;;0.50;99.90;;;;;;4975478;28;20039;-76
2023/01/30 11:40:24;;;;;;;7.93;7.40;;;0.40;99.90;;;;;;4987414;28;20385;-75
2023/01/30 11:42:57;;;;;;;6.88;6.35;;;0.40;99.90;;;;;;4975880;28;20027;-75
2023/01/30 11:45:29;;;;;;;6.22;6.03;;;0.40;99.90;;;;;;4988245;28;20049;-76
2023/01/30 11:48:00;;;;;;;10.88;10.05;;;0.40;99.90;;;;;;4984689;28;20054;-76
2023/01/30 11:50:31;;;;;;;10.55;9.85;;;0.40;99.90;;;;;;4987786;28;20055;-76
2023/01/30 11:53:03;;;;;;;8.60;8.10;;;0.40;99.90;;;;;;4983600;28;20046;-76
2023/01/30 11:55:33;;;;;;;8.82;8.43;;;0.40;99.90;;;;;;4980983;28;20550;-76
2023/01/30 11:58:08;;;;;;;5.57;5.32;;;0.40;99.90;;;;;;4992369;28;20031;-77
2023/01/30 12:00:40;;;;;;;8.95;8.32;;;0.40;99.90;;;;;;4976589;28;20150;-76
2023/01/30 12:03:10;;;;;;;7.78;7.47;;;0.40;99.90;;;;;;4988186;28;20088;-76
2023/01/30 12:05:41;;;;;;;10.52;9.85;;;0.40;99.90;;;;;;4985976;28;20376;-76
2023/01/30 12:08:18;;;;;;;5.88;5.57;;;0.40;99.90;;;;;;4987126;28;20023;-75
2023/01/30 12:10:46;;;;;;;7.53;7.10;;;0.40;99.90;;;;;;4984349;28;20026;-76
2023/01/30 12:13:32;;;;;;;6.75;6.35;;;0.40;99.90;;;;;;4988523;28;20130;-76
2023/01/30 12:16:10;;;;;;;6.90;6.60;;;0.50;99.90;;;;;;4987238;28;20029;-76
2023/01/30 12:18:44;;;;;;;11.20;10.27;;;0.50;99.90;;;;;;4997004;28;20049;-76
2023/01/30 12:21:33;;;;;;;9.60;9.10;;;0.50;99.90;;;;;;4990722;28;20027;-76
2023/01/30 12:24:16;;;;;;;6.28;5.97;;;0.50;99.90;;;;;;4986270;28;20118;-76
2023/01/30 12:26:53;;;;;;;11.05;10.25;;;0.60;99.90;;;;;;4980347;28;20113;-76
2023/01/30 12:29:37;;;;;;;9.88;9.23;;;0.70;99.90;;;;;;4990506;28;20034;-77
2023/01/30 12:32:14;;;;;;;6.45;6.25;;;0.70;99.90;;;;;;4984282;28;20085;-76
2023/01/30 12:34:41;;;;;;;4.93;4.72;;;0.80;99.90;;;;;;4978834;28;20030;-76
2023/01/30 12:37:45;;;;;;;10.05;5.63;;;0.80;99.90;;;;;;4992764;28;20030;-77
2023/01/30 12:40:38;;;;;;;6.18;5.78;;;0.90;99.90;;;;;;4983945;28;20026;-76
2023/01/30 12:43:42;;;;;;;8.82;7.40;;;1.00;99.90;;;;;;4974808;28;20098;-76
2023/01/30 12:46:19;;;;;;;6.60;6.30;;;1.10;99.90;;;;;;4977705;28;20489;-77
2023/01/30 12:49:14;;;;;;;5.65;5.45;;;1.20;99.90;;;;;;4991544;28;20019;-76
2023/01/30 12:52:13;;;;;;;12.43;11.65;;;1.20;99.90;;;;;;4988448;28;20118;-76
2023/01/30 12:54:53;;;;;;;8.00;7.60;;;1.30;99.90;;;;;;4993003;28;20030;-76
2023/01/30 12:57:34;;;;;;;7.55;7.15;;;1.50;99.90;;;;;;4991259;28;20034;-77
2023/01/30 13:00:29;;;;;;;10.52;9.70;;;1.50;99.90;;;;;;4981762;28;20042;-76
2023/01/30 13:03:19;;;;;;;6.55;6.15;;;1.70;99.90;;;;;;4992744;28;20168;-75
2023/01/30 13:06:19;;;;;;;7.47;7.10;;;1.60;99.90;;;;;;4997503;28;20026;-76
2023/01/30 13:08:59;;;;;;;8.73;8.27;;;1.70;99.90;;;;;;4994832;28;20026;-76
2023/01/30 13:11:36;;;;;;;5.93;5.45;;;1.70;99.90;;;;;;4991400;28;20045;-76
2023/01/30 13:15:00;;;;;;;6.43;6.18;;;1.80;99.90;;;;;;4982029;28;20046;-76
2023/01/30 13:17:57;;;;;;;14.20;13.15;;;1.90;99.90;;;;;;4977321;28;20053;-76
2023/01/30 13:20:44;;;;;;;7.82;7.40;;;1.90;99.90;;;;;;4982133;28;20057;-76